createdAt,value
2023-05-15T00:04:19.625Z,3.33
2023-05-15T00:09:27.448Z,3.28
2023-05-15T00:14:32.618Z,2.88
2023-05-15T00:19:38.451Z,3.50
2023-05-15T00:24:46.348Z,3.15
2023-05-15T00:29:51.472Z,3.22
2023-05-15T00:34:56.647Z,3.28
2023-05-15T00:40:04.942Z,3.60
2023-05-15T00:45:13.174Z,2.88
2023-05-15T00:50:18.349Z,3.13
2023-05-15T00:55:27.564Z,3.70
2023-05-15T01:00:42.418Z,2.83
2023-05-15T01:05:48.099Z,4.30
2023-05-15T01:10:56.505Z,3.10
2023-05-15T01:16:01.976Z,3.05
2023-05-15T01:21:46.733Z,2.10
2023-05-15T01:27:19.638Z,2.72
2023-05-15T01:32:31.268Z,3.10
2023-05-15T01:37:39.165Z,2.75
2023-05-15T01:42:54.322Z,2.88
2023-05-15T01:48:03.195Z,2.60
2023-05-15T01:53:15.816Z,2.88
2023-05-15T01:58:21.639Z,2.67
2023-05-15T02:03:29.610Z,2.45
2023-05-15T02:08:35.224Z,2.30
2023-05-15T02:13:40.948Z,3.05
2023-05-15T02:18:54.119Z,2.47
2023-05-15T02:24:01.537Z,2.38
2023-05-15T02:29:23.707Z,2.35
2023-05-15T02:34:39.762Z,2.67
2023-05-15T02:39:46.398Z,3.88
2023-05-15T02:44:52.220Z,3.17
2023-05-15T02:50:00.687Z,3.40
2023-05-15T02:55:06.733Z,3.00
2023-05-15T03:00:13.752Z,4.40
2023-05-15T03:05:21.593Z,3.63
2023-05-15T03:10:26.766Z,3.55
2023-05-15T03:15:32.975Z,4.20
2023-05-15T03:20:40.754Z,4.07
2023-05-15T03:25:45.946Z,3.72
2023-05-15T03:30:51.019Z,3.50
2023-05-15T03:36:03.106Z,4.88
2023-05-15T03:41:11.421Z,4.25
2023-05-15T03:46:20.220Z,6.03
2023-05-15T03:51:28.596Z,4.97
2023-05-15T03:56:34.364Z,6.63
2023-05-15T04:01:50.367Z,6.57
2023-05-15T04:07:08.148Z,7.05
2023-05-15T04:12:13.343Z,5.00
2023-05-15T04:17:19.271Z,5.35
2023-05-15T04:22:27.003Z,8.43
2023-05-15T04:27:32.183Z,6.65
2023-05-15T04:32:38.123Z,7.57
2023-05-15T04:37:46.543Z,9.77
2023-05-15T04:42:51.639Z,6.00
2023-05-15T04:47:56.708Z,4.97
2023-05-15T04:53:04.580Z,7.72
2023-05-15T04:58:10.081Z,7.32
2023-05-15T05:03:16.305Z,7.63
2023-05-15T05:08:24.268Z,4.95
2023-05-15T05:13:29.539Z,5.30
2023-05-15T05:18:34.812Z,5.70
2023-05-15T05:23:42.942Z,5.68
2023-05-15T05:28:48.068Z,5.47
2023-05-15T05:33:53.234Z,5.20
2023-05-15T05:39:01.703Z,4.32
2023-05-15T05:44:07.312Z,5.22
2023-05-15T05:49:12.417Z,4.78
2023-05-15T05:54:20.795Z,4.85
2023-05-15T05:59:27.191Z,6.65
2023-05-15T06:04:32.274Z,8.90
2023-05-15T06:09:40.150Z,6.28
2023-05-15T06:14:46.823Z,9.43
2023-05-15T06:19:51.795Z,5.55
2023-05-15T06:24:59.579Z,5.15
2023-05-15T06:30:05.424Z,9.68
2023-05-15T06:35:12.563Z,4.90
2023-05-15T06:40:20.325Z,6.80
2023-05-15T06:45:25.839Z,6.38
2023-05-15T06:50:31.520Z,6.85
2023-05-15T06:55:40.435Z,8.32
2023-05-15T07:00:47.408Z,5.97
2023-05-15T07:05:53.352Z,7.90
2023-05-15T07:11:02.224Z,7.85
2023-05-15T07:16:08.730Z,8.00
2023-05-15T07:21:14.400Z,7.60
2023-05-15T07:26:32.851Z,8.13
2023-05-15T07:31:42.078Z,7.50
2023-05-15T07:36:47.595Z,8.95
2023-05-15T07:41:55.609Z,9.35
2023-05-15T07:47:02.795Z,12.27
2023-05-15T07:52:09.061Z,9.15
2023-05-15T07:57:17.553Z,8.07
2023-05-15T08:02:24.451Z,7.93
2023-05-15T08:07:30.961Z,7.32
2023-05-15T08:12:40.413Z,9.90
2023-05-15T08:18:07.785Z,8.10
2023-05-15T08:23:16.502Z,7.88
2023-05-15T08:28:26.825Z,7.70
2023-05-15T08:33:39.332Z,7.25
2023-05-15T08:38:49.904Z,9.00
2023-05-15T08:44:01.333Z,7.72
2023-05-15T08:49:17.031Z,6.70
2023-05-15T08:54:23.075Z,17.35
2023-05-15T08:59:34.833Z,8.23
2023-05-15T09:04:41.778Z,9.15
2023-05-15T09:09:51.722Z,8.15
2023-05-15T09:15:18.769Z,8.02
2023-05-15T09:20:33.239Z,8.65
2023-05-15T09:25:41.941Z,5.85
2023-05-15T09:30:54.375Z,9.77
2023-05-15T09:35:59.856Z,10.57
2023-05-15T09:41:09.011Z,7.32
2023-05-15T09:46:19.053Z,5.90
2023-05-15T09:51:29.049Z,7.50
2023-05-15T09:56:36.499Z,7.85
2023-05-15T10:01:46.653Z,7.18
2023-05-15T10:06:54.358Z,6.20
2023-05-15T10:12:04.337Z,7.85
2023-05-15T10:17:17.054Z,9.98
2023-05-15T10:22:25.547Z,5.00
2023-05-15T10:27:32.136Z,6.82
2023-05-15T10:32:42.897Z,6.55
2023-05-15T10:37:49.567Z,6.20
2023-05-15T10:42:56.170Z,6.35
2023-05-15T10:48:05.863Z,6.30
2023-05-15T10:53:14.057Z,5.15
2023-05-15T10:58:20.330Z,5.85
2023-05-15T11:03:50.011Z,5.45
2023-05-15T11:08:56.880Z,8.00
2023-05-15T11:14:18.577Z,6.88
2023-05-15T11:19:29.504Z,8.20
2023-05-15T11:24:40.073Z,7.68
2023-05-15T11:30:19.133Z,6.18
2023-05-15T11:35:32.283Z,8.52
2023-05-15T11:40:49.127Z,5.60
2023-05-15T11:45:56.921Z,5.38
2023-05-15T11:51:06.540Z,4.97
2023-05-15T11:56:17.383Z,6.60
2023-05-15T12:01:23.328Z,6.68
2023-05-15T12:06:33.939Z,5.70
2023-05-15T12:11:39.705Z,5.20
2023-05-15T12:16:46.528Z,6.28
2023-05-15T12:21:54.949Z,5.32
2023-05-15T12:27:04.552Z,5.60
2023-05-15T12:32:12.850Z,5.47
2023-05-15T12:37:23.327Z,4.63
2023-05-15T12:42:30.508Z,4.28
2023-05-15T12:47:37.199Z,4.38
2023-05-15T12:52:49.958Z,2.58
2023-05-15T12:57:56.162Z,4.15
2023-05-15T13:03:03.483Z,4.63
2023-05-15T13:08:12.543Z,4.93
2023-05-15T13:13:18.545Z,4.40
2023-05-15T13:18:24.408Z,3.70
2023-05-15T13:23:32.945Z,2.83
2023-05-15T13:28:38.794Z,3.72
2023-05-15T13:33:48.792Z,3.83
2023-05-15T13:38:59.159Z,6.13
2023-05-15T13:44:05.776Z,3.67
2023-05-15T13:49:12.294Z,3.67
2023-05-15T13:54:20.806Z,4.47
2023-05-15T13:59:26.930Z,3.95
2023-05-15T14:04:34.198Z,3.50
2023-05-15T14:09:42.744Z,3.58
2023-05-15T14:14:49.893Z,4.68
2023-05-15T14:19:56.895Z,3.72
2023-05-15T14:30:12.480Z,6.63
2023-05-15T14:35:18.366Z,8.13
2023-05-15T14:40:27.017Z,4.45
2023-05-15T14:45:34.430Z,4.47
2023-05-15T14:50:40.296Z,5.22
2023-05-15T14:55:48.883Z,4.60
2023-05-15T15:00:55.379Z,5.05
2023-05-15T15:06:02.236Z,4.00
2023-05-15T15:11:12.111Z,5.55
2023-05-15T15:16:18.115Z,4.57
2023-05-15T15:21:25.111Z,5.68
2023-05-15T15:26:33.845Z,5.57
2023-05-15T15:31:39.919Z,7.45
2023-05-15T15:36:47.404Z,5.60
2023-05-15T15:41:58.486Z,6.68
2023-05-15T15:47:06.232Z,6.28
2023-05-15T15:52:13.264Z,6.78
2023-05-15T16:02:28.468Z,7.60
2023-05-15T16:07:48.337Z,7.22
2023-05-15T16:13:04.788Z,8.73
2023-05-15T16:18:11.859Z,10.43
2023-05-15T16:23:18.326Z,7.60
2023-05-15T16:28:29.337Z,9.77
2023-05-15T16:33:45.638Z,8.10
2023-05-15T16:39:09.703Z,8.15
2023-05-15T16:44:24.528Z,7.95
2023-05-15T16:49:31.709Z,8.52
2023-05-15T16:54:38.511Z,7.57
2023-05-15T16:59:47.738Z,7.80
2023-05-15T17:04:54.543Z,8.40
2023-05-15T17:10:01.254Z,7.97
2023-05-15T17:15:11.653Z,7.68
2023-05-15T17:20:18.809Z,8.18
2023-05-15T17:25:26.820Z,8.05
2023-05-15T17:30:37.562Z,8.80
2023-05-15T17:35:43.653Z,8.88
2023-05-15T17:40:49.846Z,9.77
2023-05-15T17:45:58.847Z,8.35
2023-05-15T17:51:05.920Z,7.70
2023-05-15T17:56:13.528Z,9.75
2023-05-15T18:01:22.775Z,9.30
2023-05-15T18:06:29.594Z,8.50
2023-05-15T18:11:35.758Z,8.18
2023-05-15T18:16:44.919Z,7.43
2023-05-15T18:21:54.027Z,8.60
2023-05-15T18:27:00.699Z,7.90
2023-05-15T18:32:10.803Z,7.78
2023-05-15T18:37:20.916Z,7.70
2023-05-15T18:42:27.175Z,7.40
2023-05-15T18:47:37.187Z,7.85
2023-05-15T18:52:44.569Z,7.28
2023-05-15T19:02:59.162Z,7.35
2023-05-15T19:08:06.237Z,7.35
2023-05-15T19:13:13.127Z,7.13
2023-05-15T19:18:28.654Z,7.30
2023-05-15T19:23:36.196Z,7.15
2023-05-15T19:28:42.584Z,6.90
2023-05-15T19:33:51.412Z,6.80
2023-05-15T19:38:58.107Z,7.15
2023-05-15T19:44:04.940Z,7.13
2023-05-15T19:49:14.693Z,6.03
2023-05-15T19:54:22.571Z,7.47
2023-05-15T19:59:29.410Z,7.63
2023-05-15T20:04:39.290Z,7.85
2023-05-15T20:09:45.895Z,8.40
2023-05-15T20:14:54.414Z,8.15
2023-05-15T20:20:15.256Z,8.60
2023-05-15T20:25:25.519Z,8.60
2023-05-15T20:30:32.329Z,8.45
2023-05-15T20:35:41.403Z,8.85
2023-05-15T20:40:53.268Z,8.30
2023-05-15T20:46:05.391Z,9.25
2023-05-15T20:51:17.420Z,8.52
2023-05-15T20:56:24.298Z,9.85
2023-05-15T21:01:30.848Z,9.50
2023-05-15T21:06:39.834Z,9.27
2023-05-15T21:11:47.509Z,8.43
2023-05-15T21:16:53.563Z,9.23
2023-05-15T21:22:05.489Z,7.75
2023-05-15T21:27:11.443Z,8.95
2023-05-15T21:32:18.728Z,9.00
2023-05-15T21:37:27.315Z,8.07
2023-05-15T21:42:34.367Z,10.02
2023-05-15T21:47:40.356Z,8.98
2023-05-15T21:52:51.429Z,9.35
2023-05-15T21:57:57.325Z,9.50
2023-05-15T22:03:03.282Z,10.40
2023-05-15T22:08:12.386Z,11.05
2023-05-15T22:13:18.050Z,11.23
2023-05-15T22:18:24.197Z,9.40
2023-05-15T22:23:32.650Z,8.38
2023-05-15T22:28:37.746Z,9.75
2023-05-15T22:33:42.856Z,8.95
2023-05-15T22:38:54.163Z,9.40
2023-05-15T22:43:59.526Z,10.15
2023-05-15T22:49:04.773Z,9.20
2023-05-15T22:54:12.708Z,9.63
2023-05-15T22:59:17.919Z,10.68
2023-05-15T23:04:23.182Z,9.32
2023-05-15T23:09:31.196Z,10.43
2023-05-15T23:14:36.372Z,10.75
2023-05-15T23:19:41.678Z,10.27
2023-05-15T23:24:49.524Z,9.50
2023-05-15T23:29:54.668Z,9.65
2023-05-15T23:35:01.239Z,9.85
2023-05-15T23:40:10.356Z,10.38
2023-05-15T23:45:16.326Z,11.43
2023-05-15T23:50:21.804Z,12.07
2023-05-15T23:55:29.556Z,11.60
